Time;durP1;ratioP1;P1;durP2;ratioP2;P2;SDS_P1;SDS_P2;PMS_P1;PMS_P2;Temp;Humidity;BMP_temperature;BMP_pressure;BME280_temperature;BME280_humidity;BME280_pressure;Samples;Min_cycle;Max_cycle;Signal;HPM_P1;HPM_P2
2022/05/17 00:01:37;;;;;;;29.27;13.68;;;15.10;99.90;;;;;;5056341;28;20105;-91
2022/05/17 00:04:04;;;;;;;27.15;13.63;;;15.10;99.90;;;;;;5009963;28;20056;-90
2022/05/17 00:06:30;;;;;;;24.85;13.00;;;15.10;99.90;;;;;;5040644;28;20081;-91
2022/05/17 00:08:55;;;;;;;31.10;14.35;;;15.00;99.90;;;;;;5020363;28;20057;-90
2022/05/17 00:11:21;;;;;;;29.17;13.30;;;14.90;99.90;;;;;;5004501;28;20366;-91
2022/05/17 00:13:47;;;;;;;27.17;14.13;;;15.00;99.90;;;;;;5021393;28;20485;-92
2022/05/17 00:16:13;;;;;;;27.73;12.50;;;14.90;99.90;;;;;;5020215;28;20056;-91
2022/05/17 00:18:38;;;;;;;28.20;13.75;;;14.90;99.90;;;;;;5035818;28;20049;-92
2022/05/17 00:21:04;;;;;;;27.30;12.15;;;14.90;99.90;;;;;;5019670;28;20136;-92
2022/05/17 00:23:30;;;;;;;28.02;13.25;;;14.80;99.90;;;;;;5019704;28;20084;-92
2022/05/17 00:25:55;;;;;;;27.60;11.88;;;14.80;99.90;;;;;;5004024;28;20095;-91
2022/05/17 00:28:21;;;;;;;31.60;12.98;;;14.80;99.90;;;;;;5019253;28;20046;-92
2022/05/17 00:30:48;;;;;;;27.73;11.68;;;15.30;99.90;;;;;;5018535;28;20041;-92
2022/05/17 00:33:13;;;;;;;26.02;13.13;;;14.80;99.90;;;;;;5021735;28;20115;-92
2022/05/17 00:35:39;;;;;;;31.83;12.43;;;14.70;99.90;;;;;;5038669;28;20049;-92
2022/05/17 00:38:05;;;;;;;29.52;11.60;;;14.70;99.90;;;;;;5021840;28;20049;-91
2022/05/17 00:40:31;;;;;;;27.23;11.50;;;14.60;99.90;;;;;;5043228;28;20053;-90
2022/05/17 00:42:56;;;;;;;30.38;11.75;;;14.60;99.90;;;;;;5040902;28;20154;-92
2022/05/17 00:45:22;;;;;;;26.58;11.98;;;14.60;99.90;;;;;;5040546;28;20045;-91
2022/05/17 00:47:50;;;;;;;27.10;11.38;;;14.60;99.90;;;;;;5027534;28;20046;-93
2022/05/17 00:50:27;;;;;;;27.98;11.68;;;14.60;99.90;;;;;;5033064;28;20027;-90
2022/05/17 00:53:05;;;;;;;27.38;11.57;;;14.60;99.90;;;;;;5020606;28;20060;-91
2022/05/17 00:55:39;;;;;;;23.00;10.98;;;14.60;99.90;;;;;;5007558;28;20401;-91
2022/05/17 00:58:13;;;;;;;27.73;11.07;;;14.60;99.90;;;;;;5028802;28;20125;-91
2022/05/17 01:00:51;;;;;;;28.55;11.30;;;14.60;99.90;;;;;;5015601;28;20493;-90
2022/05/17 01:03:17;;;;;;;28.75;11.40;;;14.50;99.90;;;;;;4989100;28;20053;-93
2022/05/17 01:05:46;;;;;;;27.30;11.60;;;14.50;99.90;;;;;;5020162;28;20076;-92
2022/05/17 01:08:12;;;;;;;25.67;11.18;;;14.50;99.90;;;;;;5001705;28;20095;-89
2022/05/17 01:10:38;;;;;;;25.33;10.40;;;14.40;99.90;;;;;;5034086;28;20049;-92
2022/05/17 01:15:48;;;;;;;27.13;11.50;;;14.50;99.90;;;;;;5033995;28;20049;-92
2022/05/17 01:18:14;;;;;;;23.20;10.80;;;14.40;99.90;;;;;;5033042;28;20045;-90
2022/05/17 01:20:40;;;;;;;29.38;12.20;;;14.40;99.90;;;;;;5032918;28;20115;-92
2022/05/17 01:23:05;;;;;;;27.25;11.82;;;14.40;99.90;;;;;;4984291;28;20115;-92
2022/05/17 01:25:33;;;;;;;28.13;11.60;;;14.30;99.90;;;;;;5000318;28;20421;-91
2022/05/17 01:28:07;;;;;;;25.40;12.00;;;14.40;99.90;;;;;;5016380;28;20049;-91
2022/05/17 01:30:34;;;;;;;22.08;10.45;;;14.40;99.90;;;;;;5000413;28;20186;-90
2022/05/17 01:32:59;;;;;;;29.77;11.75;;;14.40;99.90;;;;;;5016361;28;20055;-91
2022/05/17 01:35:25;;;;;;;27.75;10.10;;;14.30;99.90;;;;;;5016211;28;20049;-92
2022/05/17 01:37:53;;;;;;;20.08;10.88;;;14.40;99.90;;;;;;5016479;28;20084;-93
2022/05/17 01:40:19;;;;;;;28.52;10.90;;;14.30;99.90;;;;;;5000082;28;20053;-91
2022/05/17 01:42:44;;;;;;;28.17;11.02;;;14.30;99.90;;;;;;4999686;28;20041;-90
2022/05/17 01:45:11;;;;;;;24.17;12.00;;;14.30;99.90;;;;;;5032516;28;20037;-90
2022/05/17 01:47:37;;;;;;;27.50;10.63;;;14.30;99.90;;;;;;5015958;28;20053;-91
2022/05/17 01:50:03;;;;;;;28.17;11.65;;;14.20;99.90;;;;;;5015856;28;20370;-91
2022/05/17 01:52:29;;;;;;;29.45;12.25;;;14.20;99.90;;;;;;5016212;28;20077;-90
2022/05/17 01:54:54;;;;;;;27.52;12.20;;;14.20;99.90;;;;;;5032339;28;20485;-91
2022/05/17 01:57:20;;;;;;;27.15;11.43;;;14.10;99.90;;;;;;5031939;28;20455;-90
2022/05/17 01:59:46;;;;;;;26.40;12.50;;;14.10;99.90;;;;;;5032204;28;20057;-89
2022/05/17 02:02:11;;;;;;;25.65;11.98;;;14.10;99.90;;;;;;5032467;28;20045;-89
2022/05/17 02:04:37;;;;;;;30.80;12.70;;;14.10;99.90;;;;;;5048336;28;20049;-92
2022/05/17 02:07:03;;;;;;;36.17;12.93;;;14.10;99.90;;;;;;4999694;28;20049;-90
2022/05/17 02:09:28;;;;;;;28.50;14.48;;;14.00;99.90;;;;;;5015549;28;20046;-91
2022/05/17 02:11:54;;;;;;;34.38;14.13;;;14.00;99.90;;;;;;5016345;28;20103;-92
2022/05/17 02:14:20;;;;;;;36.38;13.80;;;14.10;99.90;;;;;;5017965;28;20053;-90
2022/05/17 02:16:46;;;;;;;29.55;13.82;;;14.00;99.90;;;;;;5041087;28;20050;-92
2022/05/17 02:19:12;;;;;;;33.28;13.52;;;14.00;99.90;;;;;;5032059;28;20115;-91
2022/05/17 02:21:39;;;;;;;27.55;13.65;;;14.00;99.90;;;;;;5015269;28;20517;-90
2022/05/17 02:24:05;;;;;;;27.20;14.18;;;14.00;99.90;;;;;;5031543;28;20076;-93
2022/05/17 02:26:31;;;;;;;27.30;13.63;;;14.00;99.90;;;;;;5015374;28;20045;-93
2022/05/17 02:28:57;;;;;;;27.15;13.18;;;13.90;99.90;;;;;;5032578;28;20057;-92
2022/05/17 02:31:23;;;;;;;29.75;14.82;;;13.90;99.90;;;;;;5015852;28;20111;-91
2022/05/17 02:33:48;;;;;;;37.05;15.90;;;13.90;99.90;;;;;;5031881;28;20490;-92
2022/05/17 02:36:14;;;;;;;39.45;16.63;;;13.80;99.90;;;;;;5032009;28;20049;-91
2022/05/17 02:38:40;;;;;;;31.45;15.48;;;13.80;99.90;;;;;;5015137;28;20405;-92
2022/05/17 02:41:06;;;;;;;31.33;15.20;;;13.80;99.90;;;;;;5016037;28;20084;-93
2022/05/17 02:43:32;;;;;;;30.85;14.25;;;13.80;99.90;;;;;;5016086;28;20060;-92
2022/05/17 02:45:58;;;;;;;29.77;15.82;;;13.80;99.90;;;;;;5032510;28;20490;-92
2022/05/17 02:48:24;;;;;;;27.02;15.05;;;13.80;99.90;;;;;;5033555;28;20049;-89
2022/05/17 02:50:49;;;;;;;33.20;15.55;;;13.70;99.90;;;;;;5037977;28;20096;-91
2022/05/17 02:53:15;;;;;;;29.45;15.60;;;13.70;99.90;;;;;;5055244;28;20092;-92
2022/05/17 02:55:41;;;;;;;31.88;16.33;;;13.70;99.90;;;;;;5033449;28;20049;-91
2022/05/17 02:58:06;;;;;;;34.03;15.45;;;13.70;99.90;;;;;;5031835;28;20053;-91
2022/05/17 03:00:32;;;;;;;31.55;15.15;;;13.60;99.90;;;;;;5031413;28;20045;-90
2022/05/17 03:02:58;;;;;;;33.03;16.50;;;13.60;99.90;;;;;;5036142;28;20474;-91
2022/05/17 03:05:23;;;;;;;35.28;16.35;;;13.60;99.90;;;;;;5033686;28;20052;-92
2022/05/17 03:07:49;;;;;;;38.70;17.65;;;13.60;99.90;;;;;;5014979;28;20053;-90
2022/05/17 03:10:15;;;;;;;35.88;16.40;;;13.60;99.90;;;;;;5014920;28;20057;-91
2022/05/17 03:12:41;;;;;;;41.58;19.17;;;13.60;99.90;;;;;;5031062;28;20103;-91
2022/05/17 03:15:07;;;;;;;37.67;16.58;;;13.60;99.90;;;;;;5014844;28;20061;-92
2022/05/17 03:17:33;;;;;;;40.47;17.95;;;13.60;99.90;;;;;;5030871;28;20508;-92
2022/05/17 03:19:59;;;;;;;30.75;16.10;;;13.60;99.90;;;;;;5031531;28;20053;-92
2022/05/17 03:22:24;;;;;;;34.78;16.08;;;13.60;99.90;;;;;;5039699;28;20108;-91
2022/05/17 03:24:51;;;;;;;29.13;16.70;;;13.50;99.90;;;;;;5030487;28;20049;-91
2022/05/17 03:27:18;;;;;;;37.08;16.92;;;13.60;99.90;;;;;;4998701;28;20049;-91
2022/05/17 03:29:43;;;;;;;33.10;15.80;;;13.50;99.90;;;;;;4998272;28;20071;-90
2022/05/17 03:32:09;;;;;;;31.70;16.23;;;13.60;99.90;;;;;;4998735;28;20057;-89
2022/05/17 03:34:35;;;;;;;33.00;16.95;;;13.50;99.90;;;;;;5014226;28;20049;-91
2022/05/17 03:37:01;;;;;;;32.80;17.02;;;13.50;99.90;;;;;;5014851;28;20176;-91
2022/05/17 03:39:26;;;;;;;41.35;16.83;;;13.50;99.90;;;;;;5015006;28;20051;-91
2022/05/17 03:41:52;;;;;;;33.90;16.58;;;13.40;99.90;;;;;;5014277;28;20060;-93
2022/05/17 03:44:18;;;;;;;40.67;16.45;;;13.40;99.90;;;;;;5013939;28;20056;-91
2022/05/17 03:46:44;;;;;;;31.25;16.45;;;13.40;99.90;;;;;;5013893;28;20045;-91
2022/05/17 03:49:10;;;;;;;35.20;16.67;;;13.40;99.90;;;;;;5001645;28;20053;-91
2022/05/17 03:51:35;;;;;;;37.42;17.30;;;13.40;99.90;;;;;;5005179;28;20045;-90
2022/05/17 03:54:01;;;;;;;36.92;18.10;;;13.40;99.90;;;;;;5071146;28;20049;-90
2022/05/17 03:56:27;;;;;;;30.92;16.20;;;13.30;99.90;;;;;;5026665;28;20053;-90
2022/05/17 03:58:52;;;;;;;28.13;15.73;;;13.40;99.90;;;;;;5056662;28;20077;-91
2022/05/17 04:01:18;;;;;;;34.83;17.27;;;13.30;99.90;;;;;;5035940;28;20046;-90
2022/05/17 04:03:44;;;;;;;36.92;16.05;;;13.40;99.90;;;;;;5024190;28;20092;-92
2022/05/17 04:06:09;;;;;;;33.15;17.08;;;13.40;99.90;;;;;;5052452;28;20092;-92
2022/05/17 04:08:36;;;;;;;27.73;15.13;;;13.50;99.90;;;;;;5002623;28;20041;-90
2022/05/17 04:11:04;;;;;;;39.63;16.13;;;13.40;99.90;;;;;;5003357;28;20049;-91
2022/05/17 04:13:31;;;;;;;36.17;15.93;;;13.60;99.90;;;;;;5052729;28;20089;-91
2022/05/17 04:16:00;;;;;;;30.42;14.57;;;13.60;99.90;;;;;;5018799;28;20524;-91
2022/05/17 04:18:26;;;;;;;29.50;15.05;;;13.60;99.90;;;;;;5018311;28;20081;-91
2022/05/17 04:20:57;;;;;;;35.47;14.50;;;13.70;99.90;;;;;;5002467;28;20496;-91
2022/05/17 04:23:23;;;;;;;32.05;14.82;;;13.70;99.90;;;;;;5018886;28;20045;-90
2022/05/17 04:25:49;;;;;;;31.40;14.80;;;13.80;99.90;;;;;;5051383;28;20060;-91
2022/05/17 04:28:15;;;;;;;29.52;14.38;;;13.90;99.90;;;;;;5021405;28;20049;-91
2022/05/17 04:30:41;;;;;;;26.70;14.35;;;14.00;99.90;;;;;;5026944;28;20057;-91
2022/05/17 04:33:07;;;;;;;30.05;13.85;;;14.10;99.90;;;;;;5018229;28;20103;-90
2022/05/17 04:35:32;;;;;;;33.63;14.68;;;14.30;99.90;;;;;;5017440;28;20049;-90
2022/05/17 04:37:58;;;;;;;23.90;12.85;;;14.50;99.90;;;;;;5034680;28;20041;-90
2022/05/17 04:40:24;;;;;;;24.85;11.52;;;15.10;99.90;;;;;;5033665;28;20108;-92
2022/05/17 04:42:50;;;;;;;21.02;10.32;;;15.70;99.90;;;;;;5033397;28;20516;-90
2022/05/17 04:45:16;;;;;;;23.77;10.95;;;16.50;99.90;;;;;;5033230;28;20440;-92
2022/05/17 04:47:42;;;;;;;22.83;10.75;;;17.10;99.90;;;;;;5016717;28;20547;-90
2022/05/17 04:50:09;;;;;;;22.83;8.43;;;17.60;99.90;;;;;;5016676;28;20512;-91
2022/05/17 04:52:34;;;;;;;17.73;9.48;;;17.80;99.90;;;;;;5017210;28;20088;-90
2022/05/17 04:55:00;;;;;;;19.10;9.55;;;20.10;99.90;;;;;;5037420;28;20061;-91
2022/05/17 04:57:26;;;;;;;20.63;9.75;;;19.10;99.90;;;;;;5034923;28;20068;-91
2022/05/17 04:59:51;;;;;;;15.13;8.15;;;19.00;99.90;;;;;;5034770;28;20152;-91
2022/05/17 05:02:17;;;;;;;18.25;7.68;;;19.40;99.90;;;;;;5032272;28;20049;-91
2022/05/17 05:04:43;;;;;;;15.60;8.60;;;19.20;99.90;;;;;;5032231;28;20049;-87
2022/05/17 05:07:08;;;;;;;16.55;8.45;;;19.70;99.90;;;;;;5016941;28;20068;-91
2022/05/17 05:09:34;;;;;;;17.13;7.55;;;19.70;99.90;;;;;;5033427;28;20049;-91
2022/05/17 05:12:00;;;;;;;20.08;7.93;;;20.00;99.90;;;;;;5016453;28;20053;-90
2022/05/17 05:14:26;;;;;;;14.98;7.50;;;19.80;99.90;;;;;;5032472;28;20054;-90
2022/05/17 05:16:52;;;;;;;16.35;7.32;;;19.80;99.90;;;;;;5033071;28;20061;-90
2022/05/17 05:19:18;;;;;;;15.90;7.53;;;19.60;99.90;;;;;;5005228;28;20065;-90
2022/05/17 05:21:43;;;;;;;19.27;7.30;;;19.70;99.90;;;;;;5033518;28;20053;-90
2022/05/17 05:24:11;;;;;;;14.73;7.40;;;19.80;99.90;;;;;;5032748;28;20393;-91
2022/05/17 05:26:37;;;;;;;16.80;6.88;;;19.40;99.90;;;;;;5017007;28;20132;-90
2022/05/17 05:29:03;;;;;;;13.25;7.32;;;19.40;99.90;;;;;;5016192;28;20129;-90
2022/05/17 05:31:28;;;;;;;18.02;7.85;;;19.50;99.90;;;;;;5032361;28;20053;-89
2022/05/17 05:33:54;;;;;;;15.95;8.23;;;19.60;99.90;;;;;;5032408;28;20071;-89
2022/05/17 05:36:20;;;;;;;16.13;8.32;;;19.40;99.90;;;;;;5032758;28;20061;-90
2022/05/17 05:38:45;;;;;;;18.50;8.05;;;19.40;99.90;;;;;;5031985;28;20448;-91
2022/05/17 05:41:12;;;;;;;17.33;8.25;;;19.00;99.90;;;;;;5032292;28;20045;-91
2022/05/17 05:43:37;;;;;;;14.88;8.15;;;18.80;99.90;;;;;;5033105;28;20083;-91
2022/05/17 05:46:03;;;;;;;15.50;8.35;;;18.60;99.90;;;;;;5027314;28;20073;-91
2022/05/17 05:48:29;;;;;;;14.98;7.40;;;18.90;99.90;;;;;;5031947;28;20042;-91
2022/05/17 05:50:54;;;;;;;20.13;8.77;;;19.00;99.90;;;;;;5031959;28;20048;-91
2022/05/17 05:53:20;;;;;;;16.42;7.97;;;19.20;99.90;;;;;;5031946;28;20080;-89
2022/05/17 05:55:50;;;;;;;17.23;8.00;;;20.00;99.90;;;;;;5031688;28;20092;-91
2022/05/17 05:58:16;;;;;;;16.98;7.30;;;20.60;99.90;;;;;;5016029;28;20477;-90
2022/05/17 06:00:42;;;;;;;15.77;7.43;;;21.40;99.90;;;;;;5032001;28;20053;-91
2022/05/17 06:03:08;;;;;;;14.35;6.55;;;21.60;99.90;;;;;;5015385;28;20057;-91
2022/05/17 06:05:36;;;;;;;17.42;7.32;;;21.30;99.90;;;;;;5015307;28;20546;-89
2022/05/17 06:08:02;;;;;;;14.75;7.22;;;21.50;99.90;;;;;;5015235;28;20064;-89
2022/05/17 06:10:28;;;;;;;14.88;6.65;;;21.40;99.90;;;;;;5031611;28;20092;-90
2022/05/17 06:12:54;;;;;;;15.05;6.95;;;21.40;99.90;;;;;;5014639;28;20449;-90
2022/05/17 06:15:20;;;;;;;17.95;7.53;;;21.30;99.90;;;;;;5014614;28;20212;-90
2022/05/17 06:17:45;;;;;;;16.33;7.05;;;21.70;99.90;;;;;;5031828;28;20118;-89
2022/05/17 06:20:11;;;;;;;15.32;7.15;;;21.60;99.90;;;;;;5031685;28;20056;-89
2022/05/17 06:22:38;;;;;;;15.48;6.80;;;21.80;99.90;;;;;;5015397;28;20136;-90
2022/05/17 06:25:04;;;;;;;14.98;6.68;;;22.00;99.90;;;;;;5014785;28;20526;-90
2022/05/17 06:27:30;;;;;;;11.98;6.55;;;22.40;99.90;;;;;;5015936;28;20111;-90
2022/05/17 06:29:56;;;;;;;12.13;6.80;;;22.40;99.90;;;;;;5029191;28;20421;-89
2022/05/17 06:32:21;;;;;;;13.85;6.45;;;22.60;99.90;;;;;;5034763;28;20401;-89
2022/05/17 06:34:47;;;;;;;14.32;6.72;;;22.20;99.90;;;;;;5035643;28;20049;-89
2022/05/17 06:37:13;;;;;;;14.65;7.00;;;21.80;99.90;;;;;;5035499;28;20140;-90
2022/05/17 06:39:39;;;;;;;12.35;6.35;;;22.10;99.90;;;;;;5034697;28;20449;-89
2022/05/17 06:42:06;;;;;;;12.75;5.85;;;22.20;99.90;;;;;;5050833;28;20056;-89
2022/05/17 06:44:32;;;;;;;10.60;6.18;;;22.10;99.90;;;;;;5034439;28;20457;-88
2022/05/17 06:46:58;;;;;;;11.88;6.53;;;22.30;99.90;;;;;;5050574;28;20045;-89
2022/05/17 06:49:25;;;;;;;15.45;6.28;;;22.00;99.90;;;;;;5034952;28;20071;-90
2022/05/17 06:51:51;;;;;;;13.07;5.53;;;22.10;99.90;;;;;;5036491;28;20084;-89
2022/05/17 06:54:16;;;;;;;14.13;5.97;;;22.00;99.90;;;;;;5043238;28;20060;-90
2022/05/17 06:56:42;;;;;;;12.55;5.47;;;22.00;99.90;;;;;;5053750;28;20075;-90
2022/05/17 06:59:08;;;;;;;11.45;5.72;;;22.10;99.90;;;;;;5039206;28;20041;-90
2022/05/17 07:01:34;;;;;;;11.75;5.05;;;22.00;99.90;;;;;;5043705;28;20056;-89
2022/05/17 07:03:59;;;;;;;12.02;5.85;;;22.30;99.90;;;;;;5034261;28;20049;-89
2022/05/17 07:06:25;;;;;;;10.45;4.82;;;23.00;99.90;;;;;;5036553;28;20107;-89
2022/05/17 07:08:51;;;;;;;10.07;5.10;;;21.30;99.90;;;;;;5037442;28;20057;-89
2022/05/17 07:14:01;;;;;;;14.07;5.03;;;22.50;99.90;;;;;;5038914;28;20114;-90
2022/05/17 07:16:27;;;;;;;15.50;5.38;;;22.30;99.90;;;;;;5040653;28;20057;-90
2022/05/17 07:18:53;;;;;;;13.10;5.13;;;23.10;99.90;;;;;;5052655;28;20047;-91
2022/05/17 07:21:18;;;;;;;14.90;6.15;;;23.70;99.90;;;;;;5034632;28;20045;-89
2022/05/17 07:23:44;;;;;;;10.25;4.82;;;23.60;99.90;;;;;;5030733;28;20084;-89
2022/05/17 07:26:10;;;;;;;12.25;5.03;;;23.70;99.90;;;;;;5029953;28;20061;-88
2022/05/17 07:28:47;;;;;;;11.80;5.22;;;24.40;99.90;;;;;;5036366;28;20041;-89
2022/05/17 07:31:13;;;;;;;11.38;4.93;;;24.30;99.90;;;;;;5035222;28;20060;-89
2022/05/17 07:33:39;;;;;;;11.50;4.45;;;24.10;99.90;;;;;;5052267;28;20040;-90
2022/05/17 07:36:06;;;;;;;11.73;5.03;;;24.40;99.90;;;;;;5036478;28;20049;-90
2022/05/17 07:38:32;;;;;;;10.52;4.60;;;24.30;99.90;;;;;;5016687;28;20049;-90
2022/05/17 07:40:57;;;;;;;10.30;4.72;;;24.20;99.90;;;;;;5020154;28;20409;-92
2022/05/17 07:43:23;;;;;;;9.98;4.28;;;24.10;99.90;;;;;;5017108;28;20053;-91
2022/05/17 07:45:52;;;;;;;10.27;4.20;;;24.40;99.90;;;;;;5028256;28;20053;-89
2022/05/17 07:48:18;;;;;;;10.30;4.40;;;24.40;99.90;;;;;;5035027;28;20072;-88
2022/05/17 07:50:44;;;;;;;9.55;3.83;;;24.50;99.90;;;;;;5035891;28;20532;-91
2022/05/17 07:53:11;;;;;;;10.65;4.57;;;24.00;99.90;;;;;;5051166;28;20128;-88
2022/05/17 07:55:37;;;;;;;9.10;4.28;;;23.90;99.90;;;;;;5036432;28;20037;-88
2022/05/17 07:58:05;;;;;;;10.88;4.32;;;24.10;99.90;;;;;;5019271;28;20052;-87
2022/05/17 08:00:31;;;;;;;10.13;4.60;;;24.80;99.90;;;;;;5052875;28;20135;-89
2022/05/17 08:02:58;;;;;;;11.77;5.22;;;24.70;99.90;;;;;;5034200;28;20262;-87
2022/05/17 08:05:25;;;;;;;10.60;4.10;;;24.40;99.90;;;;;;5034600;28;20489;-88
2022/05/17 08:07:51;;;;;;;8.30;3.70;;;25.00;99.90;;;;;;5035827;28;20127;-89
2022/05/17 08:10:17;;;;;;;12.15;4.75;;;25.40;99.90;;;;;;5033669;28;20045;-93
2022/05/17 08:12:43;;;;;;;14.55;4.57;;;24.90;99.90;;;;;;5035401;28;20405;-90
2022/05/17 08:15:09;;;;;;;10.98;4.00;;;24.80;99.90;;;;;;5050316;28;20049;-91
2022/05/17 08:17:35;;;;;;;10.52;4.45;;;25.30;99.90;;;;;;5036115;28;20554;-90
2022/05/17 08:20:01;;;;;;;10.48;4.28;;;25.00;99.90;;;;;;5032804;28;20106;-87
2022/05/17 08:22:27;;;;;;;10.40;4.00;;;25.30;99.90;;;;;;5035282;28;20051;-88
2022/05/17 08:27:40;;;;;;;8.63;3.13;;;25.90;99.90;;;;;;5064947;28;20049;-86
2022/05/17 08:30:17;;;;;;;11.32;3.97;;;25.40;99.90;;;;;;5040386;28;20044;-91
2022/05/17 08:33:16;;;;;;;11.27;3.95;;;25.70;99.90;;;;;;5041814;28;20046;-90
2022/05/17 08:36:01;;;;;;;12.07;4.30;;;25.90;99.90;;;;;;5057026;28;20056;-90
2022/05/17 08:38:32;;;;;;;11.48;3.67;;;26.40;99.90;;;;;;5021013;28;20049;-92
2022/05/17 08:41:13;;;;;;;9.07;3.33;;;25.90;99.90;;;;;;5003353;28;20061;-95
2022/05/17 08:43:55;;;;;;;9.93;2.95;;;26.00;99.90;;;;;;5052511;28;20045;-91
2022/05/17 08:46:51;;;;;;;10.07;3.65;;;26.20;99.90;;;;;;5017213;28;20520;-90
2022/05/17 08:49:47;;;;;;;8.68;3.75;;;26.90;99.90;;;;;;5035338;28;20128;-92
2022/05/17 08:52:21;;;;;;;10.25;3.67;;;27.00;99.90;;;;;;5018109;28;20064;-91
2022/05/17 08:55:01;;;;;;;7.25;3.35;;;27.10;99.90;;;;;;5058913;28;20037;-92
2022/05/17 08:57:45;;;;;;;8.55;2.97;;;26.40;99.90;;;;;;5036775;28;20154;-94
2022/05/17 09:00:27;;;;;;;7.03;2.50;;;26.80;99.90;;;;;;5052461;28;20049;-94
2022/05/17 09:02:56;;;;;;;12.00;3.17;;;27.30;99.90;;;;;;5037343;28;20041;-92
2022/05/17 09:05:33;;;;;;;7.60;2.60;;;27.10;99.90;;;;;;5019970;28;20056;-91
2022/05/17 09:08:27;;;;;;;7.68;2.70;;;26.50;99.90;;;;;;5053303;28;20052;-90
2022/05/17 09:10:53;;;;;;;8.13;3.00;;;26.90;99.90;;;;;;5057568;28;20049;-91
2022/05/17 09:13:25;;;;;;;8.45;3.15;;;27.60;99.90;;;;;;5037509;28;20056;-90
2022/05/17 09:15:52;;;;;;;9.75;3.00;;;27.20;99.90;;;;;;5053356;28;20532;-90
2022/05/17 09:18:18;;;;;;;7.53;2.80;;;27.40;99.90;;;;;;5036358;28;20053;-91
2022/05/17 09:20:44;;;;;;;5.90;2.28;;;27.10;99.90;;;;;;5037351;28;20053;-92
2022/05/17 09:23:10;;;;;;;5.70;2.10;;;27.50;99.90;;;;;;5041569;28;20049;-90
2022/05/17 09:26:08;;;;;;;6.30;2.20;;;26.90;99.90;;;;;;5052914;28;20037;-90
2022/05/17 09:28:58;;;;;;;8.68;2.53;;;26.40;99.90;;;;;;5046156;28;20045;-92
2022/05/17 09:31:28;;;;;;;8.13;2.38;;;27.20;99.90;;;;;;5034400;28;20419;-92
2022/05/17 09:33:53;;;;;;;8.52;2.65;;;26.80;99.90;;;;;;5036276;28;20032;-94
2022/05/17 09:36:25;;;;;;;6.95;2.40;;;27.30;99.90;;;;;;5035451;28;20101;-93
2022/05/17 09:38:52;;;;;;;8.10;2.65;;;27.40;99.90;;;;;;5015836;28;20076;-93
2022/05/17 09:41:23;;;;;;;7.93;2.50;;;27.30;99.90;;;;;;5034128;28;20366;-91
2022/05/17 09:43:51;;;;;;;11.13;2.97;;;26.90;99.90;;;;;;5035090;28;20054;-90
2022/05/17 09:46:18;;;;;;;6.30;2.40;;;27.00;99.90;;;;;;5035772;28;20063;-90
2022/05/17 09:54:43;;;;;;;9.98;2.55;;;27.10;99.90;;;;;;5050690;28;20489;-92
2022/05/17 09:57:17;;;;;;;7.43;2.40;;;26.80;99.90;;;;;;5065766;28;20041;-94
2022/05/17 09:59:44;;;;;;;12.13;3.03;;;27.30;99.90;;;;;;5034065;28;20374;-93
2022/05/17 10:02:33;;;;;;;8.10;2.22;;;27.80;99.90;;;;;;5043778;28;20083;-96
2022/05/17 10:05:17;;;;;;;8.55;2.03;;;27.70;99.90;;;;;;5057225;28;20389;-92
2022/05/17 10:07:43;;;;;;;6.40;1.90;;;27.70;99.60;;;;;;5041892;28;20053;-92
2022/05/17 10:10:33;;;;;;;7.70;2.17;;;27.90;99.70;;;;;;5033063;28;20112;-92
2022/05/17 10:13:16;;;;;;;6.78;2.17;;;27.90;99.90;;;;;;5035123;28;20457;-94
2022/05/17 10:15:43;;;;;;;4.50;2.42;;;28.10;99.20;;;;;;5040614;28;20059;-93
2022/05/17 10:18:17;;;;;;;6.53;2.10;;;27.90;99.30;;;;;;5019350;28;20504;-90
2022/05/17 10:20:45;;;;;;;7.75;2.13;;;28.30;99.90;;;;;;5034302;28;20470;-90
2022/05/17 10:23:32;;;;;;;5.75;1.73;;;28.10;98.20;;;;;;5035603;28;20103;-91
2022/05/17 10:26:02;;;;;;;5.82;2.03;;;27.50;97.20;;;;;;5051059;28;20080;-93
2022/05/17 10:28:48;;;;;;;7.22;1.73;;;27.60;99.40;;;;;;5031812;28;20041;-91
2022/05/17 10:31:23;;;;;;;4.93;1.92;;;27.50;98.40;;;;;;5046309;28;20041;-91
2022/05/17 10:33:58;;;;;;;6.25;1.92;;;27.60;98.80;;;;;;5016618;28;20401;-90
2022/05/17 10:36:32;;;;;;;6.88;2.22;;;27.60;98.80;;;;;;5015480;28;20076;-89
2022/05/17 10:39:31;;;;;;;7.70;2.28;;;27.90;98.30;;;;;;5015474;28;20135;-89
2022/05/17 10:41:57;;;;;;;5.60;2.00;;;28.10;97.40;;;;;;5034512;28;20049;-90
2022/05/17 10:44:23;;;;;;;7.55;2.05;;;27.80;98.00;;;;;;5035638;28;20056;-95
2022/05/17 10:47:03;;;;;;;5.57;2.10;;;27.10;98.20;;;;;;5035696;28;20105;-92
2022/05/17 10:49:47;;;;;;;5.47;1.40;;;27.50;95.80;;;;;;5015226;28;20477;-92
2022/05/17 10:52:35;;;;;;;5.07;1.50;;;26.70;96.90;;;;;;5050899;28;20076;-93
2022/05/17 10:55:42;;;;;;;3.85;2.05;;;27.10;96.40;;;;;;5013931;28;20128;-92
2022/05/17 10:58:41;;;;;;;3.15;1.30;;;26.30;96.60;;;;;;5036422;28;20063;-95
2022/05/17 11:01:22;;;;;;;3.20;1.27;;;25.90;94.90;;;;;;5034582;28;20084;-92
2022/05/17 11:04:07;;;;;;;4.15;1.17;;;26.00;95.30;;;;;;5032799;28;20068;-91
2022/05/17 11:06:58;;;;;;;5.65;1.77;;;26.70;96.40;;;;;;5050994;28;20049;-89
2022/05/17 11:09:41;;;;;;;4.32;1.55;;;27.50;95.70;;;;;;5037664;28;20110;-91
2022/05/17 11:12:10;;;;;;;4.37;1.40;;;27.00;94.50;;;;;;5031512;28;20045;-91
2022/05/17 11:14:43;;;;;;;3.85;1.50;;;27.00;96.00;;;;;;5031789;28;20062;-91
2022/05/17 11:17:35;;;;;;;4.63;1.73;;;27.40;96.70;;;;;;5034209;28;20049;-91
2022/05/17 11:20:22;;;;;;;6.05;1.88;;;26.80;96.20;;;;;;5031398;28;20467;-89
2022/05/17 11:23:06;;;;;;;5.70;1.70;;;27.10;95.90;;;;;;5030951;28;20049;-90
2022/05/17 11:26:09;;;;;;;4.72;1.50;;;26.60;96.20;;;;;;5036018;28;20045;-90
2022/05/17 11:28:56;;;;;;;5.13;1.63;;;26.90;95.30;;;;;;5049765;28;20048;-93
2022/05/17 11:31:41;;;;;;;4.60;1.70;;;26.80;96.00;;;;;;5049494;28;20047;-93
2022/05/17 11:34:22;;;;;;;5.82;1.63;;;26.90;96.50;;;;;;5050794;28;20079;-92
2022/05/17 11:36:48;;;;;;;9.70;1.90;;;26.90;94.70;;;;;;5042583;28;20081;-91
2022/05/17 11:39:35;;;;;;;3.78;1.60;;;26.80;95.90;;;;;;5049393;28;20497;-92
2022/05/17 11:42:12;;;;;;;5.45;1.60;;;26.20;95.50;;;;;;5042074;28;20074;-93
2022/05/17 11:44:45;;;;;;;5.43;1.55;;;26.20;96.30;;;;;;5030330;28;20037;-90
2022/05/17 11:47:49;;;;;;;4.57;1.52;;;26.20;96.60;;;;;;5031930;28;20053;-92
2022/05/17 11:50:15;;;;;;;;;;;25.90;96.20;;;;;;5031872;28;20172;-91
2022/05/17 11:52:45;;;;;;;6.07;1.73;;;25.60;95.90;;;;;;5048418;28;20403;-91
2022/05/17 11:55:13;;;;;;;6.03;1.60;;;26.30;95.90;;;;;;5034522;28;20060;-94
2022/05/17 11:57:41;;;;;;;6.85;1.70;;;26.90;96.10;;;;;;5028715;28;20054;-88
2022/05/17 12:00:10;;;;;;;6.13;1.65;;;27.00;95.40;;;;;;5030006;28;20080;-88
2022/05/17 12:02:51;;;;;;;5.38;1.58;;;26.50;95.40;;;;;;5029309;28;20493;-88
2022/05/17 12:05:48;;;;;;;4.15;1.50;;;26.80;96.10;;;;;;5013826;28;20076;-88
2022/05/17 12:08:43;;;;;;;4.88;1.60;;;26.50;96.40;;;;;;5049114;28;20055;-89
2022/05/17 12:11:11;;;;;;;4.07;1.58;;;27.00;95.10;;;;;;5042856;28;20053;-88
2022/05/17 12:13:53;;;;;;;4.38;1.60;;;26.60;95.40;;;;;;5018680;28;20053;-88
2022/05/17 12:16:28;;;;;;;4.43;1.48;;;26.60;94.60;;;;;;5032562;28;20057;-87
2022/05/17 12:19:01;;;;;;;4.60;1.40;;;26.20;95.10;;;;;;5016116;28;20064;-87
2022/05/17 12:21:34;;;;;;;4.30;1.85;;;26.40;95.40;;;;;;5016884;28;20072;-87
2022/05/17 12:24:28;;;;;;;5.88;1.52;;;26.40;95.50;;;;;;5000405;28;20107;-88
2022/05/17 12:27:09;;;;;;;4.85;1.60;;;26.40;96.00;;;;;;5025821;28;20504;-88
2022/05/17 12:32:28;;;;;;;3.97;1.98;;;26.40;96.00;;;;;;5018851;28;20061;-89
2022/05/17 12:34:54;;;;;;;5.03;1.90;;;26.10;96.40;;;;;;5029720;28;20516;-88
2022/05/17 12:37:24;;;;;;;6.38;1.98;;;26.00;96.60;;;;;;5032598;28;20048;-88
2022/05/17 12:45:23;;;;;;;6.45;2.45;;;26.30;97.30;;;;;;5033364;28;20076;-87
2022/05/17 12:47:51;;;;;;;6.15;1.50;;;26.20;96.90;;;;;;5031853;28;20056;-87
2022/05/17 12:50:25;;;;;;;5.65;1.92;;;26.40;97.30;;;;;;5034909;28;20049;-87
2022/05/17 12:52:57;;;;;;;7.32;2.40;;;26.20;98.40;;;;;;5031711;28;20053;-88
2022/05/17 12:55:25;;;;;;;4.05;1.65;;;26.10;95.80;;;;;;5035494;28;20053;-88
2022/05/17 12:57:52;;;;;;;6.22;1.90;;;25.90;98.00;;;;;;5034596;28;20053;-87
2022/05/17 13:00:30;;;;;;;5.30;2.28;;;26.00;97.60;;;;;;5020355;28;20050;-87
2022/05/17 13:02:59;;;;;;;6.28;2.03;;;26.40;98.20;;;;;;5006385;28;20052;-87
2022/05/17 13:05:34;;;;;;;10.45;2.53;;;26.50;97.70;;;;;;5021310;28;20030;-87
2022/05/17 13:08:04;;;;;;;8.52;2.25;;;26.40;97.10;;;;;;5050534;28;20084;-88
2022/05/17 13:10:30;;;;;;;8.10;1.90;;;26.80;97.60;;;;;;5052832;28;20373;-86
2022/05/17 13:12:55;;;;;;;5.53;2.00;;;27.20;97.20;;;;;;5051491;28;20056;-87